X  CloseMetar Aviation Weather Data     EBBR Brussels

Temperature

17°C Temperature

15°C Dewpoint

88% Humidity



Wind

 2 KM/H

 1 MPH

 0 M/S

 1 KTS



Calm
Due North
Current Conditions

Mostly Scattered Clouds Mostly Scattered Clouds
Pressure 1003.92 (hPa) - 29.65 (in)
Visibility 6.2 (mi) - 10 (km)
Airport
Airport-code EBBR

Location Brussels 14 (km)

Metar:
EBBR 181020Z VRB01KT 9999 SCT008 BKN010 17/15 Q1004 BECMG BKN015

Time: 2019-08-18 12:20